createdAt,value
2023-04-06T00:00:17.620Z,7.20
2023-04-06T00:02:47.517Z,8.32
2023-04-06T00:05:17.683Z,6.55
2023-04-06T00:07:48.072Z,7.10
2023-04-06T00:10:17.000Z,7.88
2023-04-06T00:12:45.741Z,7.28
2023-04-06T00:15:14.334Z,7.60
2023-04-06T00:17:43.000Z,6.93
2023-04-06T00:20:14.216Z,7.63
2023-04-06T00:22:42.581Z,7.97
2023-04-06T00:25:12.111Z,7.78
2023-04-06T00:27:42.986Z,6.82
2023-04-06T00:30:11.714Z,8.57
2023-04-06T00:32:43.051Z,9.55
2023-04-06T00:35:13.934Z,8.70
2023-04-06T00:37:42.569Z,7.35
2023-04-06T00:40:11.581Z,7.70
2023-04-06T00:42:39.955Z,8.43
2023-04-06T00:45:08.776Z,7.07
2023-04-06T00:47:37.401Z,7.38
2023-04-06T00:50:06.117Z,7.72
2023-04-06T00:52:37.413Z,7.50
2023-04-06T00:55:06.621Z,7.70
2023-04-06T00:57:35.003Z,6.97
2023-04-06T01:00:03.965Z,7.45
2023-04-06T01:02:32.450Z,7.47
2023-04-06T01:05:00.917Z,7.28
2023-04-06T01:07:29.358Z,7.00
2023-04-06T01:09:59.563Z,6.75
2023-04-06T01:12:27.894Z,7.30
2023-04-06T01:14:56.383Z,7.07
2023-04-06T01:17:24.889Z,7.20
2023-04-06T01:19:54.777Z,7.95
2023-04-06T01:22:24.505Z,7.07
2023-04-06T01:24:52.829Z,7.50
2023-04-06T01:27:21.376Z,7.03
2023-04-06T01:29:49.957Z,7.22
2023-04-06T01:32:18.478Z,7.03
2023-04-06T01:34:46.860Z,7.50
2023-04-06T01:37:15.704Z,7.63
2023-04-06T01:39:45.688Z,7.07
2023-04-06T01:42:13.979Z,7.63
2023-04-06T01:44:42.522Z,7.25
2023-04-06T01:47:10.877Z,6.65
2023-04-06T01:49:39.343Z,7.38
2023-04-06T01:52:07.868Z,7.55
2023-04-06T01:54:36.319Z,6.90
2023-04-06T01:57:06.582Z,7.63
2023-04-06T01:59:34.974Z,7.55
2023-04-06T02:02:03.578Z,7.10
2023-04-06T02:04:31.927Z,7.30
2023-04-06T02:07:00.254Z,7.15
2023-04-06T02:09:31.102Z,7.72
2023-04-06T02:11:59.608Z,8.20
2023-04-06T02:14:29.338Z,7.28
2023-04-06T02:16:57.716Z,6.78
2023-04-06T02:19:26.158Z,6.65
2023-04-06T02:21:54.492Z,6.70
2023-04-06T02:24:22.962Z,7.55
2023-04-06T02:26:51.289Z,6.80
2023-04-06T02:29:21.207Z,7.70
2023-04-06T02:31:51.061Z,6.65
2023-04-06T02:34:19.427Z,7.50
2023-04-06T02:36:48.306Z,6.97
2023-04-06T02:39:17.180Z,7.13
2023-04-06T02:41:45.709Z,6.78
2023-04-06T02:44:14.041Z,7.13
2023-04-06T02:46:42.659Z,6.90
2023-04-06T02:49:12.573Z,6.65
2023-04-06T02:51:41.216Z,7.22
2023-04-06T02:54:09.604Z,7.13
2023-04-06T02:56:42.075Z,7.07
2023-04-06T02:59:10.961Z,7.38
2023-04-06T03:01:40.336Z,6.57
2023-04-06T03:04:08.862Z,7.07
2023-04-06T03:06:40.100Z,6.50
2023-04-06T03:09:09.756Z,7.50
2023-04-06T03:11:38.248Z,6.63
2023-04-06T03:14:06.756Z,6.82
2023-04-06T03:16:35.616Z,7.35
2023-04-06T03:19:04.253Z,6.95
2023-04-06T03:21:33.630Z,6.05
2023-04-06T03:24:03.492Z,6.78
2023-04-06T03:26:32.099Z,7.43
2023-04-06T03:29:00.430Z,7.28
2023-04-06T03:31:29.133Z,6.68
2023-04-06T03:33:57.479Z,8.05
2023-04-06T03:36:26.394Z,7.55
2023-04-06T03:38:55.295Z,7.63
2023-04-06T03:41:25.167Z,7.20
2023-04-06T03:43:53.606Z,7.80
2023-04-06T03:46:21.980Z,7.55
2023-04-06T03:48:51.681Z,7.18
2023-04-06T03:51:19.988Z,11.88
2023-04-06T03:53:49.050Z,8.10
2023-04-06T03:56:17.401Z,7.82
2023-04-06T03:58:50.508Z,9.30
2023-04-06T04:01:19.902Z,8.02
2023-04-06T04:03:51.692Z,7.82
2023-04-06T04:06:20.506Z,8.38
2023-04-06T04:08:48.885Z,7.65
2023-04-06T04:11:17.661Z,7.45
2023-04-06T04:13:47.495Z,8.15
2023-04-06T04:16:16.073Z,7.70
2023-04-06T04:18:46.458Z,7.28
2023-04-06T04:21:17.343Z,7.93
2023-04-06T04:23:45.894Z,7.35
2023-04-06T04:26:14.381Z,7.95
2023-04-06T04:28:43.905Z,7.85
2023-04-06T04:31:13.749Z,7.80
2023-04-06T04:33:42.355Z,8.15
2023-04-06T04:36:13.440Z,6.90
2023-04-06T04:38:41.828Z,7.35
2023-04-06T04:41:10.187Z,7.10
2023-04-06T04:43:38.592Z,8.40
2023-04-06T04:46:07.921Z,7.55
2023-04-06T04:48:37.802Z,8.48
2023-04-06T04:51:07.252Z,9.18
2023-04-06T04:53:35.957Z,7.95
2023-04-06T04:56:04.373Z,7.72
2023-04-06T04:58:35.187Z,7.78
2023-04-06T05:01:05.665Z,7.78
2023-04-06T05:03:36.741Z,8.15
2023-04-06T05:06:07.441Z,7.32
2023-04-06T05:08:36.420Z,7.65
2023-04-06T05:11:05.456Z,8.15
2023-04-06T05:13:34.099Z,8.55
2023-04-06T05:16:02.722Z,9.27
2023-04-06T05:18:31.486Z,8.73
2023-04-06T05:21:00.313Z,8.70
2023-04-06T05:23:30.934Z,8.85
2023-04-06T05:25:59.823Z,9.25
2023-04-06T05:28:29.647Z,9.48
2023-04-06T05:30:58.751Z,9.65
2023-04-06T05:33:27.268Z,9.25
2023-04-06T05:35:55.959Z,10.57
2023-04-06T05:38:27.404Z,8.60
2023-04-06T05:41:01.072Z,8.63
2023-04-06T05:43:29.498Z,9.65
2023-04-06T05:45:58.014Z,8.82
2023-04-06T05:48:27.123Z,8.80
2023-04-06T05:50:55.739Z,10.13
2023-04-06T05:53:26.201Z,10.10
2023-04-06T05:55:54.487Z,11.95
2023-04-06T05:58:27.225Z,14.07
2023-04-06T06:00:59.268Z,12.23
2023-04-06T06:03:27.637Z,10.57
2023-04-06T06:05:58.946Z,10.75
2023-04-06T06:08:27.576Z,10.48
2023-04-06T06:10:59.734Z,9.85
2023-04-06T06:13:31.482Z,9.43
2023-04-06T06:16:08.396Z,12.52
2023-04-06T06:18:41.029Z,20.77
2023-04-06T06:21:09.311Z,18.80
2023-04-06T06:23:40.631Z,10.80
2023-04-06T06:26:10.387Z,11.60
2023-04-06T06:28:42.300Z,12.80
2023-04-06T06:31:11.000Z,12.63
2023-04-06T06:33:39.658Z,13.18
2023-04-06T06:36:08.176Z,14.50
2023-04-06T06:38:36.497Z,13.93
2023-04-06T06:41:05.318Z,13.40
2023-04-06T06:43:33.782Z,14.82
2023-04-06T06:46:03.536Z,14.20
2023-04-06T06:48:43.258Z,13.90
2023-04-06T06:51:12.966Z,13.05
2023-04-06T06:53:41.599Z,12.88
2023-04-06T06:56:10.177Z,13.68
2023-04-06T06:58:40.366Z,12.07
2023-04-06T07:01:10.264Z,11.88
2023-04-06T07:03:41.655Z,12.55
2023-04-06T07:06:13.098Z,11.07
2023-04-06T07:08:41.480Z,11.48
2023-04-06T07:11:12.713Z,11.10
2023-04-06T07:13:41.147Z,11.15
2023-04-06T07:16:11.284Z,10.30
2023-04-06T07:18:43.013Z,10.63
2023-04-06T07:21:11.411Z,10.50
2023-04-06T07:23:45.028Z,11.02
2023-04-06T07:26:14.010Z,10.93
2023-04-06T07:28:42.513Z,9.60
2023-04-06T07:31:12.294Z,10.30
2023-04-06T07:33:41.300Z,10.68
2023-04-06T07:36:10.939Z,9.30
2023-04-06T07:38:41.953Z,10.27
2023-04-06T07:41:10.556Z,10.82
2023-04-06T07:43:39.389Z,16.17
2023-04-06T07:46:08.011Z,25.60
2023-04-06T07:48:50.118Z,18.83
2023-04-06T07:51:18.880Z,11.10
2023-04-06T07:53:48.880Z,11.57
2023-04-06T07:56:18.914Z,10.73
2023-04-06T07:58:51.630Z,10.88
2023-04-06T08:01:24.361Z,11.25
2023-04-06T08:03:56.737Z,10.25
2023-04-06T08:06:25.755Z,12.18
2023-04-06T08:08:54.154Z,13.82
2023-04-06T08:11:28.543Z,11.60
2023-04-06T08:14:00.023Z,11.93
2023-04-06T08:16:31.649Z,10.95
2023-04-06T08:19:01.948Z,10.70
2023-04-06T08:21:30.551Z,10.30
2023-04-06T08:23:59.300Z,10.00
2023-04-06T08:26:28.100Z,10.52
2023-04-06T08:28:58.736Z,10.40
2023-04-06T08:31:29.096Z,9.88
2023-04-06T08:33:58.007Z,9.05
2023-04-06T08:36:31.089Z,9.43
2023-04-06T08:39:00.252Z,10.07
2023-04-06T08:41:29.089Z,9.57
2023-04-06T08:44:00.633Z,10.20
2023-04-06T08:46:32.613Z,10.45
2023-04-06T08:49:13.448Z,10.27
2023-04-06T08:51:56.137Z,9.52
2023-04-06T08:54:25.423Z,9.68
2023-04-06T08:57:02.271Z,9.57
2023-04-06T08:59:31.457Z,9.05
2023-04-06T09:02:04.299Z,9.38
2023-04-06T09:04:41.442Z,10.43
2023-04-06T09:07:16.672Z,9.30
2023-04-06T09:09:50.144Z,8.57
2023-04-06T09:12:28.453Z,9.68
2023-04-06T09:14:59.561Z,9.50
2023-04-06T09:17:37.872Z,9.27
2023-04-06T09:20:19.081Z,9.27
2023-04-06T09:22:54.682Z,9.10
2023-04-06T09:25:51.489Z,9.10
2023-04-06T09:28:33.383Z,8.60
2023-04-06T09:31:14.114Z,9.50
2023-04-06T09:33:56.979Z,9.00
2023-04-06T09:37:02.645Z,8.55
2023-04-06T09:39:56.576Z,9.15
2023-04-06T09:42:42.172Z,10.07
2023-04-06T09:45:27.264Z,8.77
2023-04-06T09:48:15.455Z,8.85
2023-04-06T09:51:08.205Z,9.68
2023-04-06T09:53:57.895Z,9.20
2023-04-06T09:56:48.398Z,8.98
2023-04-06T10:00:06.882Z,8.82
2023-04-06T10:02:46.516Z,8.90
2023-04-06T10:05:23.462Z,9.13
2023-04-06T10:08:03.966Z,9.88
2023-04-06T10:10:44.676Z,9.65
2023-04-06T10:13:34.158Z,8.88
2023-04-06T10:20:00.934Z,8.55
2023-04-06T10:23:06.847Z,8.52
2023-04-06T10:25:45.239Z,9.25
2023-04-06T10:28:40.352Z,9.18
2023-04-06T10:31:24.050Z,8.60
2023-04-06T10:34:05.816Z,8.65
2023-04-06T10:36:45.444Z,8.05
2023-04-06T10:39:57.018Z,8.93
2023-04-06T10:43:06.052Z,9.30
2023-04-06T10:46:05.772Z,8.63
2023-04-06T10:49:07.820Z,9.65
2023-04-06T10:51:51.831Z,8.20
2023-04-06T10:58:46.761Z,8.88
2023-04-06T11:02:15.622Z,8.77
2023-04-06T11:05:39.774Z,8.95
2023-04-06T11:09:08.553Z,7.65
2023-04-06T11:22:53.662Z,7.25
2023-04-06T11:29:57.422Z,7.57
2023-04-06T11:33:30.756Z,7.28
2023-04-06T11:59:08.641Z,9.07
2023-04-06T13:03:29.542Z,8.20
2023-04-06T17:27:49.285Z,6.88
2023-04-06T17:34:50.887Z,6.63
2023-04-06T17:51:37.739Z,7.88
2023-04-06T18:14:40.258Z,9.27
2023-04-06T18:24:05.669Z,9.60
2023-04-06T18:33:39.038Z,10.52
2023-04-06T18:39:49.730Z,12.38
2023-04-06T18:45:59.191Z,11.05
2023-04-06T18:52:20.415Z,12.00
2023-04-06T18:54:56.649Z,11.93
2023-04-06T18:58:08.908Z,10.98
2023-04-06T19:03:56.023Z,10.70
2023-04-06T19:10:01.460Z,10.57
2023-04-06T19:16:29.430Z,10.57
2023-04-06T19:19:06.245Z,10.77
2023-04-06T19:21:48.339Z,10.50
2023-04-06T19:24:24.881Z,10.48
2023-04-06T19:27:09.606Z,10.98
2023-04-06T19:29:43.362Z,11.70
2023-04-06T19:32:13.780Z,11.93
2023-04-06T19:35:01.168Z,11.13
2023-04-06T19:37:37.116Z,13.13
2023-04-06T19:40:13.965Z,13.20
2023-04-06T19:46:32.470Z,11.45
2023-04-06T19:49:19.382Z,12.45
2023-04-06T19:51:59.627Z,12.45
2023-04-06T19:57:32.369Z,14.50
2023-04-06T20:00:15.663Z,13.68
2023-04-06T20:05:52.670Z,13.90
2023-04-06T20:11:18.938Z,12.50
2023-04-06T20:14:29.829Z,13.57
2023-04-06T20:17:14.667Z,13.90
2023-04-06T20:19:47.932Z,12.57
2023-04-06T20:25:57.968Z,12.57
2023-04-06T20:32:18.643Z,12.75
2023-04-06T20:35:08.163Z,13.15
2023-04-06T20:41:04.157Z,13.40
2023-04-06T20:43:51.907Z,15.18
2023-04-06T20:46:31.420Z,15.20
2023-04-06T20:49:19.096Z,14.45
2023-04-06T20:54:53.125Z,11.98
2023-04-06T20:57:38.910Z,11.93
2023-04-06T21:00:16.564Z,11.65
2023-04-06T21:03:34.352Z,11.85
2023-04-06T21:06:30.233Z,9.77
2023-04-06T21:09:22.558Z,8.75
2023-04-06T21:12:00.702Z,10.02
2023-04-06T21:14:45.604Z,9.60
2023-04-06T21:18:07.987Z,10.27
2023-04-06T21:21:06.258Z,9.90
2023-04-06T21:27:09.654Z,10.20
2023-04-06T21:30:35.115Z,9.93
2023-04-06T21:36:06.916Z,10.73
2023-04-06T21:39:02.610Z,10.55
2023-04-06T21:42:07.555Z,11.00
2023-04-06T21:48:12.516Z,12.57
2023-04-06T21:51:11.258Z,11.63
2023-04-06T21:53:59.679Z,12.75
2023-04-06T21:56:53.287Z,11.52
2023-04-06T21:59:35.502Z,12.73
2023-04-06T22:02:21.985Z,12.43
2023-04-06T22:05:14.608Z,13.13
2023-04-06T22:07:54.335Z,12.10
2023-04-06T22:13:25.896Z,12.63
2023-04-06T22:16:11.640Z,13.05
2023-04-06T22:18:42.838Z,13.80
2023-04-06T22:21:32.456Z,14.30
2023-04-06T22:24:39.947Z,13.82
2023-04-06T22:27:13.239Z,12.98
2023-04-06T22:29:49.456Z,13.07
2023-04-06T22:32:21.504Z,13.68
2023-04-06T22:38:30.522Z,15.55
2023-04-06T22:41:25.076Z,15.43
2023-04-06T22:44:09.822Z,14.98
2023-04-06T22:46:53.366Z,14.32
2023-04-06T22:49:51.917Z,13.63
2023-04-06T22:52:24.921Z,13.35
2023-04-06T22:54:56.900Z,13.07
2023-04-06T22:57:29.603Z,12.23
2023-04-06T23:00:22.505Z,13.20
2023-04-06T23:02:54.666Z,13.93
2023-04-06T23:08:26.184Z,14.18
2023-04-06T23:11:17.831Z,13.77
2023-04-06T23:13:48.826Z,13.50
2023-04-06T23:16:26.155Z,13.90
2023-04-06T23:18:58.812Z,12.77
2023-04-06T23:21:39.559Z,17.05
2023-04-06T23:24:19.121Z,13.85
2023-04-06T23:26:54.211Z,14.50
2023-04-06T23:29:40.653Z,14.40
2023-04-06T23:32:18.541Z,14.43
2023-04-06T23:34:56.014Z,13.32
2023-04-06T23:37:38.597Z,12.63
2023-04-06T23:40:29.330Z,12.38
2023-04-06T23:43:03.923Z,12.45
2023-04-06T23:45:42.481Z,13.07
2023-04-06T23:48:30.766Z,12.30
2023-04-06T23:51:03.012Z,13.40
2023-04-06T23:53:38.536Z,13.18
2023-04-06T23:56:31.416Z,11.35
2023-04-06T23:59:07.247Z,11.20
